sensor_id;sensor_type;location;lat;lon;timestamp;P1;durP1;ratioP1;P2;durP2;ratioP2
76896;SDS011;65856;52.178;21.176;2022-12-31T00:02:25;38.60;;;17.40;;
76896;SDS011;65856;52.178;21.176;2022-12-31T00:04:56;38.40;;;17.70;;
76896;SDS011;65856;52.178;21.176;2022-12-31T00:07:27;38.30;;;18.00;;
76896;SDS011;65856;52.178;21.176;2022-12-31T00:09:58;38.20;;;18.10;;
76896;SDS011;65856;52.178;21.176;2022-12-31T00:12:29;32.90;;;16.70;;
76896;SDS011;65856;52.178;21.176;2022-12-31T00:15:00;35.70;;;17.40;;
76896;SDS011;65856;52.178;21.176;2022-12-31T00:17:31;41.10;;;18.60;;
76896;SDS011;65856;52.178;21.176;2022-12-31T00:20:02;34.80;;;15.80;;
76896;SDS011;65856;52.178;21.176;2022-12-31T00:22:34;37.90;;;17.10;;
76896;SDS011;65856;52.178;21.176;2022-12-31T00:25:07;33.50;;;16.70;;
76896;SDS011;65856;52.178;21.176;2022-12-31T00:27:38;31.70;;;15.00;;
76896;SDS011;65856;52.178;21.176;2022-12-31T00:30:12;37.00;;;18.40;;
76896;SDS011;65856;52.178;21.176;2022-12-31T00:32:43;34.70;;;16.40;;
76896;SDS011;65856;52.178;21.176;2022-12-31T00:35:14;38.60;;;18.60;;
76896;SDS011;65856;52.178;21.176;2022-12-31T00:37:45;39.50;;;18.80;;
76896;SDS011;65856;52.178;21.176;2022-12-31T00:40:16;36.10;;;18.00;;
76896;SDS011;65856;52.178;21.176;2022-12-31T00:42:47;35.80;;;17.90;;
76896;SDS011;65856;52.178;21.176;2022-12-31T00:45:18;30.60;;;14.60;;
76896;SDS011;65856;52.178;21.176;2022-12-31T00:47:49;40.40;;;18.20;;
76896;SDS011;65856;52.178;21.176;2022-12-31T00:50:20;31.70;;;16.40;;
76896;SDS011;65856;52.178;21.176;2022-12-31T00:52:51;32.80;;;16.20;;
76896;SDS011;65856;52.178;21.176;2022-12-31T00:55:22;35.60;;;16.60;;
76896;SDS011;65856;52.178;21.176;2022-12-31T00:57:53;33.30;;;17.50;;
76896;SDS011;65856;52.178;21.176;2022-12-31T01:00:24;35.30;;;17.00;;
76896;SDS011;65856;52.178;21.176;2022-12-31T01:02:55;39.10;;;18.70;;
76896;SDS011;65856;52.178;21.176;2022-12-31T01:05:25;30.70;;;15.00;;
76896;SDS011;65856;52.178;21.176;2022-12-31T01:07:57;35.70;;;18.00;;
76896;SDS011;65856;52.178;21.176;2022-12-31T01:10:28;35.10;;;18.00;;
76896;SDS011;65856;52.178;21.176;2022-12-31T01:20:00;34.20;;;15.70;;
76896;SDS011;65856;52.178;21.176;2022-12-31T01:22:31;33.70;;;17.60;;
76896;SDS011;65856;52.178;21.176;2022-12-31T01:25:02;38.70;;;17.10;;
76896;SDS011;65856;52.178;21.176;2022-12-31T01:27:34;35.60;;;17.70;;
76896;SDS011;65856;52.178;21.176;2022-12-31T01:30:07;34.20;;;16.80;;
76896;SDS011;65856;52.178;21.176;2022-12-31T01:32:39;43.00;;;18.90;;
76896;SDS011;65856;52.178;21.176;2022-12-31T01:35:10;36.50;;;17.20;;
76896;SDS011;65856;52.178;21.176;2022-12-31T01:37:41;36.80;;;16.80;;
76896;SDS011;65856;52.178;21.176;2022-12-31T01:40:13;35.10;;;16.60;;
76896;SDS011;65856;52.178;21.176;2022-12-31T01:42:44;34.00;;;15.20;;
76896;SDS011;65856;52.178;21.176;2022-12-31T01:45:21;37.50;;;17.30;;
76896;SDS011;65856;52.178;21.176;2022-12-31T01:47:55;32.40;;;16.90;;
76896;SDS011;65856;52.178;21.176;2022-12-31T01:50:29;37.40;;;18.20;;
76896;SDS011;65856;52.178;21.176;2022-12-31T01:53:05;35.10;;;17.20;;
76896;SDS011;65856;52.178;21.176;2022-12-31T01:55:43;31.60;;;16.40;;
76896;SDS011;65856;52.178;21.176;2022-12-31T01:58:19;34.70;;;16.90;;
76896;SDS011;65856;52.178;21.176;2022-12-31T02:00:52;34.70;;;16.50;;
76896;SDS011;65856;52.178;21.176;2022-12-31T02:03:26;31.40;;;15.50;;
76896;SDS011;65856;52.178;21.176;2022-12-31T02:06:02;33.80;;;16.40;;
76896;SDS011;65856;52.178;21.176;2022-12-31T02:08:39;32.80;;;15.20;;
76896;SDS011;65856;52.178;21.176;2022-12-31T02:11:25;30.10;;;15.70;;
76896;SDS011;65856;52.178;21.176;2022-12-31T02:14:01;29.70;;;16.00;;
76896;SDS011;65856;52.178;21.176;2022-12-31T02:16:41;30.00;;;14.50;;
76896;SDS011;65856;52.178;21.176;2022-12-31T02:22:57;27.20;;;12.50;;
76896;SDS011;65856;52.178;21.176;2022-12-31T02:26:07;30.20;;;14.60;;
76896;SDS011;65856;52.178;21.176;2022-12-31T02:29:15;31.60;;;14.80;;
76896;SDS011;65856;52.178;21.176;2022-12-31T02:32:08;29.30;;;13.60;;
76896;SDS011;65856;52.178;21.176;2022-12-31T02:34:46;29.70;;;14.70;;
76896;SDS011;65856;52.178;21.176;2022-12-31T02:37:21;30.00;;;13.10;;
76896;SDS011;65856;52.178;21.176;2022-12-31T02:39:55;28.00;;;13.50;;
76896;SDS011;65856;52.178;21.176;2022-12-31T02:42:28;25.80;;;12.30;;
76896;SDS011;65856;52.178;21.176;2022-12-31T02:44:59;29.00;;;14.80;;
76896;SDS011;65856;52.178;21.176;2022-12-31T02:47:43;25.90;;;13.60;;
76896;SDS011;65856;52.178;21.176;2022-12-31T02:50:34;24.90;;;13.10;;
76896;SDS011;65856;52.178;21.176;2022-12-31T02:53:19;27.40;;;13.50;;
76896;SDS011;65856;52.178;21.176;2022-12-31T02:56:05;25.30;;;10.90;;
76896;SDS011;65856;52.178;21.176;2022-12-31T02:58:45;24.80;;;11.80;;
76896;SDS011;65856;52.178;21.176;2022-12-31T03:01:45;27.30;;;13.40;;
76896;SDS011;65856;52.178;21.176;2022-12-31T03:04:37;24.10;;;11.70;;
76896;SDS011;65856;52.178;21.176;2022-12-31T03:07:11;22.90;;;12.40;;
76896;SDS011;65856;52.178;21.176;2022-12-31T03:09:45;24.40;;;11.10;;
76896;SDS011;65856;52.178;21.176;2022-12-31T03:12:18;21.50;;;11.10;;
76896;SDS011;65856;52.178;21.176;2022-12-31T03:17:50;23.40;;;11.80;;
76896;SDS011;65856;52.178;21.176;2022-12-31T03:20:26;23.40;;;11.90;;
76896;SDS011;65856;52.178;21.176;2022-12-31T03:23:21;21.00;;;10.90;;
76896;SDS011;65856;52.178;21.176;2022-12-31T03:25:53;22.80;;;11.20;;
76896;SDS011;65856;52.178;21.176;2022-12-31T03:28:27;21.30;;;10.80;;
76896;SDS011;65856;52.178;21.176;2022-12-31T03:31:00;24.50;;;10.60;;
76896;SDS011;65856;52.178;21.176;2022-12-31T03:33:34;20.60;;;10.90;;
76896;SDS011;65856;52.178;21.176;2022-12-31T03:36:09;22.40;;;11.30;;
76896;SDS011;65856;52.178;21.176;2022-12-31T03:38:41;18.50;;;10.50;;
76896;SDS011;65856;52.178;21.176;2022-12-31T03:41:12;19.30;;;10.30;;
76896;SDS011;65856;52.178;21.176;2022-12-31T03:43:43;22.60;;;10.70;;
76896;SDS011;65856;52.178;21.176;2022-12-31T03:46:14;20.80;;;9.90;;
76896;SDS011;65856;52.178;21.176;2022-12-31T03:48:45;20.60;;;10.80;;
76896;SDS011;65856;52.178;21.176;2022-12-31T03:51:16;20.60;;;10.10;;
76896;SDS011;65856;52.178;21.176;2022-12-31T03:53:47;18.90;;;10.50;;
76896;SDS011;65856;52.178;21.176;2022-12-31T03:56:18;20.00;;;10.00;;
76896;SDS011;65856;52.178;21.176;2022-12-31T03:58:49;19.40;;;9.60;;
76896;SDS011;65856;52.178;21.176;2022-12-31T04:01:20;17.90;;;9.70;;
76896;SDS011;65856;52.178;21.176;2022-12-31T04:03:52;17.30;;;9.90;;
76896;SDS011;65856;52.178;21.176;2022-12-31T04:06:23;18.50;;;10.10;;
76896;SDS011;65856;52.178;21.176;2022-12-31T04:08:54;19.00;;;9.80;;
76896;SDS011;65856;52.178;21.176;2022-12-31T04:11:24;19.30;;;10.30;;
76896;SDS011;65856;52.178;21.176;2022-12-31T04:13:55;20.40;;;10.50;;
76896;SDS011;65856;52.178;21.176;2022-12-31T04:16:26;19.00;;;10.20;;
76896;SDS011;65856;52.178;21.176;2022-12-31T04:18:57;19.70;;;9.90;;
76896;SDS011;65856;52.178;21.176;2022-12-31T04:21:29;16.80;;;9.00;;
76896;SDS011;65856;52.178;21.176;2022-12-31T04:23:59;17.00;;;9.10;;
76896;SDS011;65856;52.178;21.176;2022-12-31T04:26:31;14.70;;;7.90;;
76896;SDS011;65856;52.178;21.176;2022-12-31T04:29:03;17.10;;;8.70;;
76896;SDS011;65856;52.178;21.176;2022-12-31T04:31:34;16.40;;;8.10;;
76896;SDS011;65856;52.178;21.176;2022-12-31T04:34:05;16.20;;;9.10;;
76896;SDS011;65856;52.178;21.176;2022-12-31T04:36:36;17.90;;;10.00;;
76896;SDS011;65856;52.178;21.176;2022-12-31T04:39:07;18.40;;;9.40;;
76896;SDS011;65856;52.178;21.176;2022-12-31T04:41:38;15.80;;;8.80;;
76896;SDS011;65856;52.178;21.176;2022-12-31T04:44:09;16.50;;;9.00;;
76896;SDS011;65856;52.178;21.176;2022-12-31T04:46:40;14.90;;;7.80;;
76896;SDS011;65856;52.178;21.176;2022-12-31T04:49:11;17.80;;;7.90;;
76896;SDS011;65856;52.178;21.176;2022-12-31T04:51:42;16.20;;;8.60;;
76896;SDS011;65856;52.178;21.176;2022-12-31T04:54:13;14.00;;;8.20;;
76896;SDS011;65856;52.178;21.176;2022-12-31T04:56:44;15.10;;;8.30;;
76896;SDS011;65856;52.178;21.176;2022-12-31T04:59:15;14.10;;;7.30;;
76896;SDS011;65856;52.178;21.176;2022-12-31T05:01:46;16.30;;;8.80;;
76896;SDS011;65856;52.178;21.176;2022-12-31T05:04:17;15.70;;;8.60;;
76896;SDS011;65856;52.178;21.176;2022-12-31T05:06:48;15.80;;;8.50;;
76896;SDS011;65856;52.178;21.176;2022-12-31T05:09:18;18.70;;;8.60;;
76896;SDS011;65856;52.178;21.176;2022-12-31T05:11:51;15.50;;;7.80;;
76896;SDS011;65856;52.178;21.176;2022-12-31T05:14:22;16.00;;;7.90;;
76896;SDS011;65856;52.178;21.176;2022-12-31T05:16:53;12.90;;;7.50;;
76896;SDS011;65856;52.178;21.176;2022-12-31T05:19:25;16.50;;;8.50;;
76896;SDS011;65856;52.178;21.176;2022-12-31T05:21:56;21.60;;;10.50;;
76896;SDS011;65856;52.178;21.176;2022-12-31T05:24:45;17.80;;;10.00;;
76896;SDS011;65856;52.178;21.176;2022-12-31T05:27:18;15.40;;;8.70;;
76896;SDS011;65856;52.178;21.176;2022-12-31T05:29:50;15.90;;;9.30;;
76896;SDS011;65856;52.178;21.176;2022-12-31T05:32:21;21.00;;;11.60;;
76896;SDS011;65856;52.178;21.176;2022-12-31T05:34:52;20.60;;;10.70;;
76896;SDS011;65856;52.178;21.176;2022-12-31T05:37:23;17.40;;;9.10;;
76896;SDS011;65856;52.178;21.176;2022-12-31T05:39:54;15.20;;;8.80;;
76896;SDS011;65856;52.178;21.176;2022-12-31T05:42:25;16.80;;;8.60;;
76896;SDS011;65856;52.178;21.176;2022-12-31T05:44:56;20.40;;;10.20;;
76896;SDS011;65856;52.178;21.176;2022-12-31T05:47:27;25.80;;;12.30;;
76896;SDS011;65856;52.178;21.176;2022-12-31T05:49:58;18.90;;;9.10;;
76896;SDS011;65856;52.178;21.176;2022-12-31T05:52:29;17.30;;;8.90;;
76896;SDS011;65856;52.178;21.176;2022-12-31T05:55:00;18.20;;;9.50;;
76896;SDS011;65856;52.178;21.176;2022-12-31T05:57:31;13.50;;;8.20;;
76896;SDS011;65856;52.178;21.176;2022-12-31T06:00:02;15.40;;;8.30;;
76896;SDS011;65856;52.178;21.176;2022-12-31T06:02:34;16.30;;;9.00;;
76896;SDS011;65856;52.178;21.176;2022-12-31T06:05:06;17.00;;;9.10;;
76896;SDS011;65856;52.178;21.176;2022-12-31T06:07:39;17.80;;;9.40;;
76896;SDS011;65856;52.178;21.176;2022-12-31T06:10:10;19.50;;;10.50;;
76896;SDS011;65856;52.178;21.176;2022-12-31T06:12:41;19.60;;;10.40;;
76896;SDS011;65856;52.178;21.176;2022-12-31T06:15:12;17.30;;;9.60;;
76896;SDS011;65856;52.178;21.176;2022-12-31T06:17:43;23.50;;;10.60;;
76896;SDS011;65856;52.178;21.176;2022-12-31T06:20:14;16.00;;;9.70;;
76896;SDS011;65856;52.178;21.176;2022-12-31T06:22:45;21.40;;;9.90;;
76896;SDS011;65856;52.178;21.176;2022-12-31T06:25:16;22.70;;;10.80;;
76896;SDS011;65856;52.178;21.176;2022-12-31T06:27:47;17.60;;;9.90;;
76896;SDS011;65856;52.178;21.176;2022-12-31T06:30:18;21.30;;;11.20;;
76896;SDS011;65856;52.178;21.176;2022-12-31T06:32:49;19.00;;;11.20;;
76896;SDS011;65856;52.178;21.176;2022-12-31T06:35:20;21.30;;;10.90;;
76896;SDS011;65856;52.178;21.176;2022-12-31T06:37:51;20.60;;;10.30;;
76896;SDS011;65856;52.178;21.176;2022-12-31T06:40:22;20.30;;;9.50;;
76896;SDS011;65856;52.178;21.176;2022-12-31T06:42:53;18.40;;;9.60;;
76896;SDS011;65856;52.178;21.176;2022-12-31T06:45:24;20.00;;;11.00;;
76896;SDS011;65856;52.178;21.176;2022-12-31T06:47:55;20.10;;;10.50;;
76896;SDS011;65856;52.178;21.176;2022-12-31T06:50:26;20.30;;;11.00;;
76896;SDS011;65856;52.178;21.176;2022-12-31T06:52:57;24.30;;;10.70;;
76896;SDS011;65856;52.178;21.176;2022-12-31T06:55:31;18.40;;;11.00;;
76896;SDS011;65856;52.178;21.176;2022-12-31T06:58:03;19.40;;;9.70;;
76896;SDS011;65856;52.178;21.176;2022-12-31T07:00:35;18.20;;;10.00;;
76896;SDS011;65856;52.178;21.176;2022-12-31T07:03:22;18.70;;;9.70;;
76896;SDS011;65856;52.178;21.176;2022-12-31T07:06:07;19.40;;;9.40;;
76896;SDS011;65856;52.178;21.176;2022-12-31T07:08:46;15.20;;;8.00;;
76896;SDS011;65856;52.178;21.176;2022-12-31T07:11:25;18.90;;;9.40;;
76896;SDS011;65856;52.178;21.176;2022-12-31T07:14:05;16.40;;;9.70;;
76896;SDS011;65856;52.178;21.176;2022-12-31T07:17:02;21.40;;;11.40;;
76896;SDS011;65856;52.178;21.176;2022-12-31T07:19:47;25.30;;;12.90;;
76896;SDS011;65856;52.178;21.176;2022-12-31T07:22:26;20.30;;;10.40;;
76896;SDS011;65856;52.178;21.176;2022-12-31T07:25:00;22.50;;;10.80;;
76896;SDS011;65856;52.178;21.176;2022-12-31T07:27:49;19.70;;;10.40;;
76896;SDS011;65856;52.178;21.176;2022-12-31T07:30:38;16.60;;;9.10;;
76896;SDS011;65856;52.178;21.176;2022-12-31T07:33:46;17.30;;;8.80;;
76896;SDS011;65856;52.178;21.176;2022-12-31T07:36:34;16.50;;;8.60;;
76896;SDS011;65856;52.178;21.176;2022-12-31T07:39:21;13.60;;;8.30;;
76896;SDS011;65856;52.178;21.176;2022-12-31T07:42:03;13.10;;;8.30;;
76896;SDS011;65856;52.178;21.176;2022-12-31T07:44:49;15.30;;;9.00;;
76896;SDS011;65856;52.178;21.176;2022-12-31T07:47:28;15.90;;;8.40;;
76896;SDS011;65856;52.178;21.176;2022-12-31T07:50:00;17.40;;;8.40;;
76896;SDS011;65856;52.178;21.176;2022-12-31T07:52:33;14.00;;;8.40;;
76896;SDS011;65856;52.178;21.176;2022-12-31T07:55:05;16.70;;;8.40;;
76896;SDS011;65856;52.178;21.176;2022-12-31T07:57:41;16.20;;;8.70;;
76896;SDS011;65856;52.178;21.176;2022-12-31T08:00:21;19.30;;;8.90;;
76896;SDS011;65856;52.178;21.176;2022-12-31T08:03:07;15.40;;;8.20;;
76896;SDS011;65856;52.178;21.176;2022-12-31T08:05:49;15.00;;;7.80;;
76896;SDS011;65856;52.178;21.176;2022-12-31T08:08:34;15.50;;;8.30;;
76896;SDS011;65856;52.178;21.176;2022-12-31T08:11:14;15.50;;;8.40;;
76896;SDS011;65856;52.178;21.176;2022-12-31T08:13:49;15.20;;;8.40;;
76896;SDS011;65856;52.178;21.176;2022-12-31T08:16:23;16.00;;;7.70;;
76896;SDS011;65856;52.178;21.176;2022-12-31T08:18:56;14.90;;;8.30;;
76896;SDS011;65856;52.178;21.176;2022-12-31T08:21:38;16.00;;;8.30;;
76896;SDS011;65856;52.178;21.176;2022-12-31T08:24:18;12.70;;;7.60;;
76896;SDS011;65856;52.178;21.176;2022-12-31T08:27:01;12.10;;;6.90;;
76896;SDS011;65856;52.178;21.176;2022-12-31T08:29:43;16.30;;;8.60;;
76896;SDS011;65856;52.178;21.176;2022-12-31T08:32:32;13.00;;;8.10;;
76896;SDS011;65856;52.178;21.176;2022-12-31T08:35:18;14.50;;;8.10;;
76896;SDS011;65856;52.178;21.176;2022-12-31T08:38:08;14.60;;;7.50;;
76896;SDS011;65856;52.178;21.176;2022-12-31T08:40:55;14.10;;;6.90;;
76896;SDS011;65856;52.178;21.176;2022-12-31T08:43:43;14.50;;;7.50;;
76896;SDS011;65856;52.178;21.176;2022-12-31T08:46:25;14.30;;;7.30;;
76896;SDS011;65856;52.178;21.176;2022-12-31T08:49:00;10.70;;;6.80;;
76896;SDS011;65856;52.178;21.176;2022-12-31T08:51:32;11.30;;;7.00;;
76896;SDS011;65856;52.178;21.176;2022-12-31T08:54:05;13.90;;;6.70;;
76896;SDS011;65856;52.178;21.176;2022-12-31T08:56:41;11.70;;;6.50;;
76896;SDS011;65856;52.178;21.176;2022-12-31T08:59:39;12.00;;;6.80;;
76896;SDS011;65856;52.178;21.176;2022-12-31T09:02:34;13.70;;;7.60;;
76896;SDS011;65856;52.178;21.176;2022-12-31T09:05:21;11.50;;;6.80;;
76896;SDS011;65856;52.178;21.176;2022-12-31T09:08:06;12.30;;;6.80;;
76896;SDS011;65856;52.178;21.176;2022-12-31T09:10:52;12.00;;;6.90;;
76896;SDS011;65856;52.178;21.176;2022-12-31T09:13:31;11.80;;;5.90;;
76896;SDS011;65856;52.178;21.176;2022-12-31T09:16:19;18.00;;;6.20;;
76896;SDS011;65856;52.178;21.176;2022-12-31T09:19:00;10.50;;;5.80;;
76896;SDS011;65856;52.178;21.176;2022-12-31T09:21:31;11.50;;;5.90;;
76896;SDS011;65856;52.178;21.176;2022-12-31T09:24:04;10.60;;;5.60;;
76896;SDS011;65856;52.178;21.176;2022-12-31T09:26:46;11.90;;;6.60;;
76896;SDS011;65856;52.178;21.176;2022-12-31T09:29:35;12.70;;;6.10;;
76896;SDS011;65856;52.178;21.176;2022-12-31T09:32:20;11.50;;;5.90;;
76896;SDS011;65856;52.178;21.176;2022-12-31T09:35:01;11.80;;;5.90;;
76896;SDS011;65856;52.178;21.176;2022-12-31T09:37:42;10.70;;;5.90;;
76896;SDS011;65856;52.178;21.176;2022-12-31T09:40:47;10.20;;;5.70;;
76896;SDS011;65856;52.178;21.176;2022-12-31T09:43:58;9.80;;;5.90;;
76896;SDS011;65856;52.178;21.176;2022-12-31T09:50:27;8.30;;;4.70;;
76896;SDS011;65856;52.178;21.176;2022-12-31T09:53:37;9.00;;;5.30;;
76896;SDS011;65856;52.178;21.176;2022-12-31T09:56:21;8.80;;;5.40;;
76896;SDS011;65856;52.178;21.176;2022-12-31T09:59:02;8.80;;;5.30;;
76896;SDS011;65856;52.178;21.176;2022-12-31T10:01:49;8.70;;;5.40;;
76896;SDS011;65856;52.178;21.176;2022-12-31T10:04:49;9.90;;;5.30;;
76896;SDS011;65856;52.178;21.176;2022-12-31T10:07:42;7.70;;;4.90;;
76896;SDS011;65856;52.178;21.176;2022-12-31T10:10:24;9.20;;;4.90;;
76896;SDS011;65856;52.178;21.176;2022-12-31T10:16:23;13.30;;;5.50;;
76896;SDS011;65856;52.178;21.176;2022-12-31T10:19:30;10.40;;;5.50;;
76896;SDS011;65856;52.178;21.176;2022-12-31T10:22:32;9.50;;;5.50;;
76896;SDS011;65856;52.178;21.176;2022-12-31T10:25:25;9.90;;;6.20;;
76896;SDS011;65856;52.178;21.176;2022-12-31T10:30:51;10.40;;;4.90;;
76896;SDS011;65856;52.178;21.176;2022-12-31T10:33:40;11.30;;;6.20;;
76896;SDS011;65856;52.178;21.176;2022-12-31T10:36:19;7.80;;;5.20;;
76896;SDS011;65856;52.178;21.176;2022-12-31T10:39:05;9.40;;;5.20;;
76896;SDS011;65856;52.178;21.176;2022-12-31T10:42:03;9.70;;;5.40;;
76896;SDS011;65856;52.178;21.176;2022-12-31T10:45:19;9.60;;;5.60;;
76896;SDS011;65856;52.178;21.176;2022-12-31T10:55:24;8.10;;;5.30;;
76896;SDS011;65856;52.178;21.176;2022-12-31T10:58:42;8.20;;;4.90;;
76896;SDS011;65856;52.178;21.176;2022-12-31T11:01:27;8.10;;;4.40;;
76896;SDS011;65856;52.178;21.176;2022-12-31T11:04:40;8.00;;;4.70;;
76896;SDS011;65856;52.178;21.176;2022-12-31T11:07:35;7.60;;;4.70;;
76896;SDS011;65856;52.178;21.176;2022-12-31T11:10:44;7.50;;;5.10;;
76896;SDS011;65856;52.178;21.176;2022-12-31T11:14:05;8.00;;;5.00;;
76896;SDS011;65856;52.178;21.176;2022-12-31T11:17:10;8.20;;;4.60;;
76896;SDS011;65856;52.178;21.176;2022-12-31T11:20:06;7.70;;;4.70;;
76896;SDS011;65856;52.178;21.176;2022-12-31T11:23:01;9.70;;;4.60;;
76896;SDS011;65856;52.178;21.176;2022-12-31T11:25:51;7.80;;;4.40;;
76896;SDS011;65856;52.178;21.176;2022-12-31T11:28:51;9.40;;;5.50;;
76896;SDS011;65856;52.178;21.176;2022-12-31T11:31:36;9.50;;;5.20;;
76896;SDS011;65856;52.178;21.176;2022-12-31T11:34:23;10.00;;;5.10;;
76896;SDS011;65856;52.178;21.176;2022-12-31T11:37:25;11.00;;;5.50;;
76896;SDS011;65856;52.178;21.176;2022-12-31T11:42:51;9.00;;;5.20;;
76896;SDS011;65856;52.178;21.176;2022-12-31T11:45:43;10.90;;;6.40;;
76896;SDS011;65856;52.178;21.176;2022-12-31T11:48:32;9.80;;;5.40;;
76896;SDS011;65856;52.178;21.176;2022-12-31T11:51:24;7.90;;;4.90;;
76896;SDS011;65856;52.178;21.176;2022-12-31T11:54:44;8.90;;;5.60;;
76896;SDS011;65856;52.178;21.176;2022-12-31T11:57:26;13.00;;;6.40;;
76896;SDS011;65856;52.178;21.176;2022-12-31T12:00:05;12.90;;;7.60;;
76896;SDS011;65856;52.178;21.176;2022-12-31T12:02:47;11.10;;;6.90;;
76896;SDS011;65856;52.178;21.176;2022-12-31T12:05:21;9.70;;;5.90;;
76896;SDS011;65856;52.178;21.176;2022-12-31T12:07:55;8.40;;;5.10;;
76896;SDS011;65856;52.178;21.176;2022-12-31T12:10:27;9.30;;;4.90;;
76896;SDS011;65856;52.178;21.176;2022-12-31T12:13:08;7.30;;;4.30;;
76896;SDS011;65856;52.178;21.176;2022-12-31T12:15:44;7.00;;;4.60;;
76896;SDS011;65856;52.178;21.176;2022-12-31T12:18:38;6.60;;;4.60;;
76896;SDS011;65856;52.178;21.176;2022-12-31T12:21:13;6.60;;;4.50;;
76896;SDS011;65856;52.178;21.176;2022-12-31T12:23:56;8.40;;;4.50;;
76896;SDS011;65856;52.178;21.176;2022-12-31T12:26:33;6.60;;;4.40;;
76896;SDS011;65856;52.178;21.176;2022-12-31T12:29:15;7.10;;;4.30;;
76896;SDS011;65856;52.178;21.176;2022-12-31T12:34:30;6.60;;;3.70;;
76896;SDS011;65856;52.178;21.176;2022-12-31T12:37:02;6.30;;;3.80;;
76896;SDS011;65856;52.178;21.176;2022-12-31T12:39:35;7.00;;;4.10;;
76896;SDS011;65856;52.178;21.176;2022-12-31T12:42:09;7.30;;;3.80;;
76896;SDS011;65856;52.178;21.176;2022-12-31T12:44:42;7.40;;;3.50;;
76896;SDS011;65856;52.178;21.176;2022-12-31T12:47:15;6.20;;;3.80;;
76896;SDS011;65856;52.178;21.176;2022-12-31T12:49:51;10.20;;;4.70;;
76896;SDS011;65856;52.178;21.176;2022-12-31T12:52:36;8.30;;;4.60;;
76896;SDS011;65856;52.178;21.176;2022-12-31T12:55:22;9.60;;;5.10;;
76896;SDS011;65856;52.178;21.176;2022-12-31T12:58:05;6.70;;;4.00;;
76896;SDS011;65856;52.178;21.176;2022-12-31T13:00:48;8.10;;;4.20;;
76896;SDS011;65856;52.178;21.176;2022-12-31T13:03:40;6.10;;;4.00;;
76896;SDS011;65856;52.178;21.176;2022-12-31T13:06:34;7.50;;;3.90;;
76896;SDS011;65856;52.178;21.176;2022-12-31T13:09:21;9.00;;;4.10;;
76896;SDS011;65856;52.178;21.176;2022-12-31T13:12:10;5.90;;;4.20;;
76896;SDS011;65856;52.178;21.176;2022-12-31T13:14:52;10.20;;;4.20;;
76896;SDS011;65856;52.178;21.176;2022-12-31T13:17:48;7.70;;;4.60;;
76896;SDS011;65856;52.178;21.176;2022-12-31T13:20:31;8.00;;;4.40;;
76896;SDS011;65856;52.178;21.176;2022-12-31T13:23:16;9.70;;;4.90;;
76896;SDS011;65856;52.178;21.176;2022-12-31T13:28:33;7.70;;;3.90;;
76896;SDS011;65856;52.178;21.176;2022-12-31T13:31:10;6.00;;;4.20;;
76896;SDS011;65856;52.178;21.176;2022-12-31T13:33:47;8.00;;;4.50;;
76896;SDS011;65856;52.178;21.176;2022-12-31T13:36:26;6.20;;;4.30;;
76896;SDS011;65856;52.178;21.176;2022-12-31T13:39:01;5.50;;;3.80;;
76896;SDS011;65856;52.178;21.176;2022-12-31T13:41:42;5.90;;;3.50;;
76896;SDS011;65856;52.178;21.176;2022-12-31T13:44:23;6.00;;;3.80;;
76896;SDS011;65856;52.178;21.176;2022-12-31T13:47:01;5.10;;;3.20;;
76896;SDS011;65856;52.178;21.176;2022-12-31T13:49:42;5.90;;;3.60;;
76896;SDS011;65856;52.178;21.176;2022-12-31T13:52:26;6.70;;;3.80;;
76896;SDS011;65856;52.178;21.176;2022-12-31T13:55:07;7.10;;;3.70;;
76896;SDS011;65856;52.178;21.176;2022-12-31T13:57:44;8.70;;;4.50;;
76896;SDS011;65856;52.178;21.176;2022-12-31T14:00:22;7.20;;;4.30;;
76896;SDS011;65856;52.178;21.176;2022-12-31T14:03:05;7.50;;;4.20;;
76896;SDS011;65856;52.178;21.176;2022-12-31T14:05:45;4.80;;;3.30;;
76896;SDS011;65856;52.178;21.176;2022-12-31T14:08:20;6.40;;;3.60;;
76896;SDS011;65856;52.178;21.176;2022-12-31T14:10:59;7.10;;;3.80;;
76896;SDS011;65856;52.178;21.176;2022-12-31T14:13:44;6.30;;;3.90;;
76896;SDS011;65856;52.178;21.176;2022-12-31T14:16:34;7.30;;;4.20;;
76896;SDS011;65856;52.178;21.176;2022-12-31T14:19:20;7.10;;;4.10;;
76896;SDS011;65856;52.178;21.176;2022-12-31T14:22:11;8.00;;;3.80;;
76896;SDS011;65856;52.178;21.176;2022-12-31T14:24:46;6.20;;;3.90;;
76896;SDS011;65856;52.178;21.176;2022-12-31T14:27:22;5.50;;;4.00;;
76896;SDS011;65856;52.178;21.176;2022-12-31T14:30:00;6.80;;;3.50;;
76896;SDS011;65856;52.178;21.176;2022-12-31T14:32:45;7.70;;;3.50;;
76896;SDS011;65856;52.178;21.176;2022-12-31T14:35:35;6.90;;;3.90;;
76896;SDS011;65856;52.178;21.176;2022-12-31T14:38:22;7.00;;;4.10;;
76896;SDS011;65856;52.178;21.176;2022-12-31T14:41:11;5.50;;;4.00;;
76896;SDS011;65856;52.178;21.176;2022-12-31T14:44:02;7.60;;;4.70;;
76896;SDS011;65856;52.178;21.176;2022-12-31T14:46:48;8.00;;;4.30;;
76896;SDS011;65856;52.178;21.176;2022-12-31T14:49:38;7.80;;;4.50;;
76896;SDS011;65856;52.178;21.176;2022-12-31T14:52:27;6.30;;;3.90;;
76896;SDS011;65856;52.178;21.176;2022-12-31T14:55:01;8.90;;;4.20;;
76896;SDS011;65856;52.178;21.176;2022-12-31T14:57:49;7.20;;;4.20;;
76896;SDS011;65856;52.178;21.176;2022-12-31T15:03:02;6.10;;;4.10;;
76896;SDS011;65856;52.178;21.176;2022-12-31T15:05:35;8.20;;;4.30;;
76896;SDS011;65856;52.178;21.176;2022-12-31T15:08:30;6.90;;;3.80;;
76896;SDS011;65856;52.178;21.176;2022-12-31T15:11:22;6.30;;;4.00;;
76896;SDS011;65856;52.178;21.176;2022-12-31T15:14:22;7.20;;;3.90;;
76896;SDS011;65856;52.178;21.176;2022-12-31T15:17:18;7.40;;;3.90;;
76896;SDS011;65856;52.178;21.176;2022-12-31T15:23:23;6.40;;;3.50;;
76896;SDS011;65856;52.178;21.176;2022-12-31T15:26:00;6.60;;;3.70;;
76896;SDS011;65856;52.178;21.176;2022-12-31T15:28:34;5.80;;;3.70;;
76896;SDS011;65856;52.178;21.176;2022-12-31T15:31:15;6.40;;;3.80;;
76896;SDS011;65856;52.178;21.176;2022-12-31T15:33:59;8.10;;;3.70;;
76896;SDS011;65856;52.178;21.176;2022-12-31T15:36:32;5.70;;;3.10;;
76896;SDS011;65856;52.178;21.176;2022-12-31T15:39:25;5.10;;;2.90;;
76896;SDS011;65856;52.178;21.176;2022-12-31T15:42:29;5.90;;;3.00;;
76896;SDS011;65856;52.178;21.176;2022-12-31T15:45:15;6.00;;;3.30;;
76896;SDS011;65856;52.178;21.176;2022-12-31T15:47:55;8.90;;;3.70;;
76896;SDS011;65856;52.178;21.176;2022-12-31T15:50:30;7.40;;;3.80;;
76896;SDS011;65856;52.178;21.176;2022-12-31T15:53:05;6.40;;;3.70;;
76896;SDS011;65856;52.178;21.176;2022-12-31T15:55:41;6.00;;;3.30;;
76896;SDS011;65856;52.178;21.176;2022-12-31T15:58:17;8.60;;;3.80;;
76896;SDS011;65856;52.178;21.176;2022-12-31T16:01:00;5.50;;;3.50;;
76896;SDS011;65856;52.178;21.176;2022-12-31T16:03:40;7.10;;;4.00;;
76896;SDS011;65856;52.178;21.176;2022-12-31T16:06:14;6.50;;;3.40;;
76896;SDS011;65856;52.178;21.176;2022-12-31T16:08:48;6.60;;;4.10;;
76896;SDS011;65856;52.178;21.176;2022-12-31T16:11:19;6.90;;;4.00;;
76896;SDS011;65856;52.178;21.176;2022-12-31T16:13:53;6.80;;;4.20;;
76896;SDS011;65856;52.178;21.176;2022-12-31T16:16:28;8.70;;;4.10;;
76896;SDS011;65856;52.178;21.176;2022-12-31T16:19:00;6.80;;;3.60;;